Shao Shan 5 — VRKO9 — position and weather

sailwx.info

Track history (hours):
 
Tides and Currents Weather Stations Pressure Air Temp Water Temp Dewpoint Dewpoint Depression Visibility Wind Speed Wind Dir Waves Ship Positions

Shao Shan 5

Last reported at 2018-Apr-28 03:36 UTC. Time now 2018-May-21 20:25 UTC.
Position N 01°26' E 103°13'.
Warning: this ship's position is 23 days out of date.

Length 225 m; draft 7.3 m.

Type: Cargo ship. MMSI: 477325700.

Date/timePositionNaut miles runAvg speedWind from/ knotsBaromVisibWave heightAir tempDewpointWater temp
2018-Apr-28 03:36N 01°26' E 103°13'312.9
2018-Apr-28 03:23N 01°24' E 103°15'512.5
2018-Apr-28 02:58N 01°20' E 103°19'511.8
2018-Apr-28 02:30N 01°17' E 103°23'611.9
2018-Apr-28 01:59N 01°14' E 103°28'611.6
2018-Apr-28 01:30N 01°12' E 103°33'612.2
2018-Apr-28 01:00N 01°11' E 103°39'611.3
2018-Apr-28 00:30N 01°09' E 103°44'713.0
2018-Apr-27 23:59N 01°12' E 103°50'612.0
2018-Apr-27 23:31N 01°14' E 103°56'510.0
2018-Apr-27 23:00N 01°16' E 104°00'2 3.3
2018-Apr-27 22:30N 01°18' E 103°60'0 0.1
2018-Apr-27 22:00N 01°17' E 103°60'0 0.1
2018-Apr-27 21:17N 01°17' E 103°60'0 0.2
2018-Apr-27 20:58N 01°17' E 103°60'0 0.1
2018-Apr-27 20:22N 01°18' E 103°60'0 0.2
2018-Apr-27 19:59N 01°18' E 103°60'0 0.0
2018-Apr-27 19:30N 01°18' E 103°60'0 0.0
2018-Apr-27 18:54N 01°18' E 103°60'0 0.0
2018-Apr-27 18:25N 01°18' E 103°60'0 0.0
2018-Apr-27 17:58N 01°18' E 103°60'0 0.0
2018-Apr-27 17:16N 01°18' E 103°60'0 0.2
2018-Apr-27 16:56N 01°17' E 103°60'0 0.1
2018-Apr-27 16:26N 01°17' E 103°60'0 0.1
2018-Apr-27 15:47N 01°17' E 103°60'0 0.0
2018-Apr-27 15:22N 01°17' E 103°60'0 0.1
2018-Apr-27 14:50N 01°18' E 103°60'0 0.1
2018-Apr-27 14:26N 01°18' E 103°60'0 0.0
2018-Apr-27 13:56N 01°18' E 103°60'0 0.0
2018-Apr-27 13:29N 01°18' E 103°60'0 0.0
2018-Apr-27 12:41N 01°18' E 103°60'0 0.0
2018-Apr-27 12:27N 01°18' E 103°60'0 0.0
2018-Apr-27 11:40N 01°18' E 103°60'0 0.0
2018-Apr-27 11:26N 01°18' E 103°60'0 0.1
2018-Apr-27 10:47N 01°17' E 103°60'0 0.0
2018-Apr-27 10:30N 01°17' E 103°60'0 0.0
2018-Apr-27 09:56N 01°17' E 103°60'0 0.2
2018-Apr-27 09:30N 01°17' E 103°60'2 3.0
2018-Apr-27 08:59N 01°16' E 104°01'5 9.3
2018-Apr-27 08:29N 01°17' E 104°05'612.0
2018-Apr-27 07:59N 01°17' E 104°11'712.7
2018-Apr-27 07:28N 01°19' E 104°18'611.9
2018-Apr-27 06:59N 01°22' E 104°23'612.4
2018-Apr-27 06:30N 01°25' E 104°27'  
2018-Apr-22 14:01N 22°56' E 117°23'013.0
2018-Apr-22 14:00N 22°56' E 117°23'1313.6
2018-Apr-22 13:04N 23°07' E 117°30'113.9
2018-Apr-22 13:00N 23°07' E 117°31'713.9
2018-Apr-22 12:31N 23°13' E 117°34'714.0
2018-Apr-22 12:00N 23°19' E 117°38'713.9
2018-Apr-22 11:30N 23°25' E 117°43'713.7
2018-Apr-22 11:00N 23°29' E 117°49'713.9
2018-Apr-22 10:30N 23°34' E 117°55'713.8
2018-Apr-22 10:00N 23°39' E 117°59'713.6
2018-Apr-22 09:30N 23°43' E 118°05'713.6
2018-Apr-22 09:00N 23°48' E 118°11'713.4
2018-Apr-22 08:30N 23°52' E 118°16'713.2
2018-Apr-22 08:00N 23°57' E 118°22'613.1
2018-Apr-22 07:30N 23°60' E 118°28'612.8
2018-Apr-22 07:00N 24°05' E 118°33'612.7
2018-Apr-22 06:30N 24°09' E 118°38'612.8
2018-Apr-22 06:00N 24°13' E 118°43'612.6
2018-Apr-22 05:30N 24°17' E 118°48'612.5
2018-Apr-22 05:00N 24°21' E 118°53'612.4
2018-Apr-22 04:31N 24°25' E 118°58'612.3
2018-Apr-22 04:00N 24°30' E 119°04'612.2
2018-Apr-22 03:30N 24°34' E 119°09'612.2
2018-Apr-22 03:00N 24°38' E 119°14'612.1
2018-Apr-22 02:30N 24°42' E 119°19'612.0
2018-Apr-22 02:00N 24°45' E 119°24'612.0
2018-Apr-22 01:30N 24°50' E 119°28'612.0
2018-Apr-22 00:59N 24°54' E 119°34'612.1
2018-Apr-22 00:29N 24°58' E 119°39'612.1
2018-Apr-22 00:00N 25°02' E 119°43'612.0
2018-Apr-21 23:30N 25°05' E 119°49'39811.8
2018-Apr-20 13:48N 31°06' E 123°01'813.0
2018-Apr-20 13:10N 31°14' E 123°01'213.1
2018-Apr-20 13:00N 31°16' E 123°01'713.2
2018-Apr-20 12:30N 31°23' E 123°00'714.0
2018-Apr-20 12:00N 31°30' E 123°01'713.7
2018-Apr-20 11:30N 31°37' E 123°01'17312.5
2018-Apr-19 21:42N 34°29' E 122°49'311.7
2018-Apr-19 21:26N 34°32' E 122°48'16712.3
2018-Apr-19 07:51N 37°19' E 122°48'2413.5
2018-Apr-19 06:04N 37°36' E 122°27'113.5
2018-Apr-19 06:00N 37°37' E 122°26'1613.0
2018-Apr-19 04:45N 37°38' E 122°06'313.3
2018-Apr-19 04:30N 37°38' E 122°02'713.5
2018-Apr-19 04:00N 37°38' E 121°53'713.2
2018-Apr-19 03:30N 37°39' E 121°45'713.4
2018-Apr-19 03:00N 37°39' E 121°36'613.0
2018-Apr-19 02:30N 37°38' E 121°28'4 8.0
2018-Apr-19 02:00N 37°35' E 121°26'3 5.1
2018-Apr-19 01:30N 37°34' E 121°23'0 0.0
2018-Apr-19 00:58N 37°34' E 121°23'0 0.0
2018-Apr-19 00:28N 37°34' E 121°23'0 0.0
2018-Apr-18 23:52N 37°34' E 121°23'0 0.0
2018-Apr-18 23:25N 37°34' E 121°23'0 0.0
2018-Apr-18 22:49N 37°34' E 121°23'0 0.0
2018-Apr-18 22:28N 37°34' E 121°23'0 0.0
2018-Apr-18 21:52N 37°34' E 121°23'0 0.0
2018-Apr-18 21:28N 37°34' E 121°23'0 0.0
2018-Apr-18 20:55N 37°34' E 121°23'0 0.0
2018-Apr-18 20:28N 37°34' E 121°23'0 0.0
2018-Apr-18 19:55N 37°34' E 121°23'0 0.0
2018-Apr-18 19:28N 37°34' E 121°23'0 0.0
2018-Apr-18 18:55N 37°34' E 121°23'0 0.0
2018-Apr-18 18:28N 37°34' E 121°23'0 0.0
2018-Apr-18 17:58N 37°34' E 121°23'0 0.0
2018-Apr-18 17:25N 37°34' E 121°23'0 0.0
2018-Apr-18 16:55N 37°34' E 121°23'0 0.0
2018-Apr-18 16:28N 37°34' E 121°23'0 0.0
2018-Apr-18 15:58N 37°34' E 121°23'0 0.0
2018-Apr-18 15:28N 37°34' E 121°23'0 0.0
2018-Apr-18 14:58N 37°34' E 121°23'0 0.0
2018-Apr-18 14:28N 37°34' E 121°23'0 0.0
2018-Apr-18 13:58N 37°34' E 121°23'0 0.0
2018-Apr-18 13:25N 37°34' E 121°23'0 0.0
2018-Apr-18 12:58N 37°34' E 121°23'0 0.0
2018-Apr-18 12:25N 37°34' E 121°23'0 0.0
2018-Apr-18 11:58N 37°34' E 121°23'0 0.0
2018-Apr-18 11:25N 37°34' E 121°23'0 0.0
2018-Apr-18 10:58N 37°34' E 121°23'0 0.0
2018-Apr-18 10:28N 37°34' E 121°23'0 0.0
2018-Apr-18 09:52N 37°34' E 121°23'0 0.0
2018-Apr-18 09:16N 37°34' E 121°23'0 0.0
2018-Apr-18 08:58N 37°34' E 121°23'0 0.0
2018-Apr-18 08:28N 37°34' E 121°23'0 0.0
2018-Apr-18 07:55N 37°34' E 121°23'0 0.0
2018-Apr-18 07:28N 37°34' E 121°23'0 0.0
2018-Apr-18 06:58N 37°34' E 121°23'0 0.0
2018-Apr-18 06:28N 37°34' E 121°23'0 0.0
2018-Apr-18 05:58N 37°34' E 121°23'0 0.0
2018-Apr-18 05:25N 37°34' E 121°23'0 0.0
2018-Apr-18 04:52N 37°34' E 121°23'0 0.0
2018-Apr-18 04:25N 37°34' E 121°23'0 0.0
2018-Apr-18 03:55N 37°34' E 121°23'  
Track history (hours):
 
Tides and Currents Weather Stations Pressure Air Temp Water Temp Dewpoint Dewpoint Depression Visibility Wind Speed Wind Dir Waves Ship Positions

Shao Shan 5

Last reported at 2018-Apr-28 03:36 UTC. Time now 2018-May-21 20:25 UTC.
Position N 01°26' E 103°13'.
Warning: this ship's position is 23 days out of date.

Length 225 m; draft 7.3 m.

Type: Cargo ship. MMSI: 477325700.

Date/timePositionNaut miles runAvg speedWind from/ knotsBaromVisibWave heightAir tempDewpointWater temp
2018-Apr-28 03:36N 01°26' E 103°13'312.9
2018-Apr-28 03:23N 01°24' E 103°15'512.5
2018-Apr-28 02:58N 01°20' E 103°19'511.8
2018-Apr-28 02:30N 01°17' E 103°23'611.9
2018-Apr-28 01:59N 01°14' E 103°28'611.6
2018-Apr-28 01:30N 01°12' E 103°33'612.2
2018-Apr-28 01:00N 01°11' E 103°39'611.3
2018-Apr-28 00:30N 01°09' E 103°44'713.0
2018-Apr-27 23:59N 01°12' E 103°50'612.0
2018-Apr-27 23:31N 01°14' E 103°56'510.0
2018-Apr-27 23:00N 01°16' E 104°00'2 3.3
2018-Apr-27 22:30N 01°18' E 103°60'0 0.1
2018-Apr-27 22:00N 01°17' E 103°60'0 0.1
2018-Apr-27 21:17N 01°17' E 103°60'0 0.2
2018-Apr-27 20:58N 01°17' E 103°60'0 0.1
2018-Apr-27 20:22N 01°18' E 103°60'0 0.2
2018-Apr-27 19:59N 01°18' E 103°60'0 0.0
2018-Apr-27 19:30N 01°18' E 103°60'0 0.0
2018-Apr-27 18:54N 01°18' E 103°60'0 0.0
2018-Apr-27 18:25N 01°18' E 103°60'0 0.0
2018-Apr-27 17:58N 01°18' E 103°60'0 0.0
2018-Apr-27 17:16N 01°18' E 103°60'0 0.2
2018-Apr-27 16:56N 01°17' E 103°60'0 0.1
2018-Apr-27 16:26N 01°17' E 103°60'0 0.1
2018-Apr-27 15:47N 01°17' E 103°60'0 0.0
2018-Apr-27 15:22N 01°17' E 103°60'0 0.1
2018-Apr-27 14:50N 01°18' E 103°60'0 0.1
2018-Apr-27 14:26N 01°18' E 103°60'0 0.0
2018-Apr-27 13:56N 01°18' E 103°60'0 0.0
2018-Apr-27 13:29N 01°18' E 103°60'0 0.0
2018-Apr-27 12:41N 01°18' E 103°60'0 0.0
2018-Apr-27 12:27N 01°18' E 103°60'0 0.0
2018-Apr-27 11:40N 01°18' E 103°60'0 0.0
2018-Apr-27 11:26N 01°18' E 103°60'0 0.1
2018-Apr-27 10:47N 01°17' E 103°60'0 0.0
2018-Apr-27 10:30N 01°17' E 103°60'0 0.0
2018-Apr-27 09:56N 01°17' E 103°60'0 0.2
2018-Apr-27 09:30N 01°17' E 103°60'2 3.0
2018-Apr-27 08:59N 01°16' E 104°01'5 9.3
2018-Apr-27 08:29N 01°17' E 104°05'612.0
2018-Apr-27 07:59N 01°17' E 104°11'712.7
2018-Apr-27 07:28N 01°19' E 104°18'611.9
2018-Apr-27 06:59N 01°22' E 104°23'612.4
2018-Apr-27 06:30N 01°25' E 104°27'  
2018-Apr-22 14:01N 22°56' E 117°23'013.0
2018-Apr-22 14:00N 22°56' E 117°23'1313.6
2018-Apr-22 13:04N 23°07' E 117°30'113.9
2018-Apr-22 13:00N 23°07' E 117°31'713.9
2018-Apr-22 12:31N 23°13' E 117°34'714.0
2018-Apr-22 12:00N 23°19' E 117°38'713.9
2018-Apr-22 11:30N 23°25' E 117°43'713.7
2018-Apr-22 11:00N 23°29' E 117°49'713.9
2018-Apr-22 10:30N 23°34' E 117°55'713.8
2018-Apr-22 10:00N 23°39' E 117°59'713.6
2018-Apr-22 09:30N 23°43' E 118°05'713.6
2018-Apr-22 09:00N 23°48' E 118°11'713.4
2018-Apr-22 08:30N 23°52' E 118°16'713.2
2018-Apr-22 08:00N 23°57' E 118°22'613.1
2018-Apr-22 07:30N 23°60' E 118°28'612.8
2018-Apr-22 07:00N 24°05' E 118°33'612.7
2018-Apr-22 06:30N 24°09' E 118°38'612.8
2018-Apr-22 06:00N 24°13' E 118°43'612.6
2018-Apr-22 05:30N 24°17' E 118°48'612.5
2018-Apr-22 05:00N 24°21' E 118°53'612.4
2018-Apr-22 04:31N 24°25' E 118°58'612.3
2018-Apr-22 04:00N 24°30' E 119°04'612.2
2018-Apr-22 03:30N 24°34' E 119°09'612.2
2018-Apr-22 03:00N 24°38' E 119°14'612.1
2018-Apr-22 02:30N 24°42' E 119°19'612.0
2018-Apr-22 02:00N 24°45' E 119°24'612.0
2018-Apr-22 01:30N 24°50' E 119°28'612.0
2018-Apr-22 00:59N 24°54' E 119°34'612.1
2018-Apr-22 00:29N 24°58' E 119°39'612.1
2018-Apr-22 00:00N 25°02' E 119°43'612.0
2018-Apr-21 23:30N 25°05' E 119°49'39811.8
2018-Apr-20 13:48N 31°06' E 123°01'813.0
2018-Apr-20 13:10N 31°14' E 123°01'213.1
2018-Apr-20 13:00N 31°16' E 123°01'713.2
2018-Apr-20 12:30N 31°23' E 123°00'714.0
2018-Apr-20 12:00N 31°30' E 123°01'713.7
2018-Apr-20 11:30N 31°37' E 123°01'17312.5
2018-Apr-19 21:42N 34°29' E 122°49'311.7
2018-Apr-19 21:26N 34°32' E 122°48'16712.3
2018-Apr-19 07:51N 37°19' E 122°48'2413.5
2018-Apr-19 06:04N 37°36' E 122°27'113.5
2018-Apr-19 06:00N 37°37' E 122°26'1613.0
2018-Apr-19 04:45N 37°38' E 122°06'313.3
2018-Apr-19 04:30N 37°38' E 122°02'713.5
2018-Apr-19 04:00N 37°38' E 121°53'713.2
2018-Apr-19 03:30N 37°39' E 121°45'713.4
2018-Apr-19 03:00N 37°39' E 121°36'613.0
2018-Apr-19 02:30N 37°38' E 121°28'4 8.0
2018-Apr-19 02:00N 37°35' E 121°26'3 5.1
2018-Apr-19 01:30N 37°34' E 121°23'0 0.0
2018-Apr-19 00:58N 37°34' E 121°23'0 0.0
2018-Apr-19 00:28N 37°34' E 121°23'0 0.0
2018-Apr-18 23:52N 37°34' E 121°23'0 0.0
2018-Apr-18 23:25N 37°34' E 121°23'0 0.0
2018-Apr-18 22:49N 37°34' E 121°23'0 0.0
2018-Apr-18 22:28N 37°34' E 121°23'0 0.0
2018-Apr-18 21:52N 37°34' E 121°23'0 0.0
2018-Apr-18 21:28N 37°34' E 121°23'0 0.0
2018-Apr-18 20:55N 37°34' E 121°23'0 0.0
2018-Apr-18 20:28N 37°34' E 121°23'0 0.0
2018-Apr-18 19:55N 37°34' E 121°23'0 0.0
2018-Apr-18 19:28N 37°34' E 121°23'0 0.0
2018-Apr-18 18:55N 37°34' E 121°23'0 0.0
2018-Apr-18 18:28N 37°34' E 121°23'0 0.0
2018-Apr-18 17:58N 37°34' E 121°23'0 0.0
2018-Apr-18 17:25N 37°34' E 121°23'0 0.0
2018-Apr-18 16:55N 37°34' E 121°23'0 0.0
2018-Apr-18 16:28N 37°34' E 121°23'0 0.0
2018-Apr-18 15:58N 37°34' E 121°23'0 0.0
2018-Apr-18 15:28N 37°34' E 121°23'0 0.0
2018-Apr-18 14:58N 37°34' E 121°23'0 0.0
2018-Apr-18 14:28N 37°34' E 121°23'0 0.0
2018-Apr-18 13:58N 37°34' E 121°23'0 0.0
2018-Apr-18 13:25N 37°34' E 121°23'0 0.0
2018-Apr-18 12:58N 37°34' E 121°23'0 0.0
2018-Apr-18 12:25N 37°34' E 121°23'0 0.0
2018-Apr-18 11:58N 37°34' E 121°23'0 0.0
2018-Apr-18 11:25N 37°34' E 121°23'0 0.0
2018-Apr-18 10:58N 37°34' E 121°23'0 0.0
2018-Apr-18 10:28N 37°34' E 121°23'0 0.0
2018-Apr-18 09:52N 37°34' E 121°23'0 0.0
2018-Apr-18 09:16N 37°34' E 121°23'0 0.0
2018-Apr-18 08:58N 37°34' E 121°23'0 0.0
2018-Apr-18 08:28N 37°34' E 121°23'0 0.0
2018-Apr-18 07:55N 37°34' E 121°23'0 0.0
2018-Apr-18 07:28N 37°34' E 121°23'0 0.0
2018-Apr-18 06:58N 37°34' E 121°23'0 0.0
2018-Apr-18 06:28N 37°34' E 121°23'0 0.0
2018-Apr-18 05:58N 37°34' E 121°23'0 0.0
2018-Apr-18 05:25N 37°34' E 121°23'0 0.0
2018-Apr-18 04:52N 37°34' E 121°23'0 0.0
2018-Apr-18 04:25N 37°34' E 121°23'0 0.0
2018-Apr-18 03:55N 37°34' E 121°23'  

Dump ship's entire track history